Time;durP1;ratioP1;P1;durP2;ratioP2;P2;SDS_P1;SDS_P2;PMS_P1;PMS_P2;Temp;Humidity;BMP_temperature;BMP_pressure;BME280_temperature;BME280_humidity;BME280_pressure;Samples;Min_cycle;Max_cycle;Signal;HPM_P1;HPM_P2
2022/01/25 00:09:19;;;;;;;84.47;32.70;;;6.50;90.10;;;;;;6270289;22;20293;-61
2022/01/25 00:28:51;;;;;;;65.60;32.75;;;6.40;90.00;;;;;;6206973;23;20112;-62
2022/01/25 00:31:13;;;;;;;71.72;32.35;;;6.40;90.00;;;;;;6262422;22;20007;-61
2022/01/25 00:33:58;;;;;;;65.70;32.58;;;6.40;90.00;;;;;;6244410;22;20034;-61
2022/01/25 00:36:24;;;;;;;70.15;30.60;;;6.40;90.00;;;;;;6270868;22;20000;-60
2022/01/25 00:38:50;;;;;;;59.45;30.27;;;6.40;90.00;;;;;;6271479;22;20162;-61
2022/01/25 00:41:16;;;;;;;69.25;33.50;;;6.40;90.00;;;;;;6271596;22;20291;-60
2022/01/25 00:43:42;;;;;;;69.32;31.90;;;6.40;90.10;;;;;;6268001;22;20011;-62
2022/01/25 00:46:10;;;;;;;64.88;32.13;;;6.40;90.00;;;;;;6270453;22;20007;-62
2022/01/25 00:53:58;;;;;;;76.35;31.70;;;6.30;89.80;;;;;;6271940;22;20003;-61
2022/01/25 00:56:29;;;;;;;72.60;31.63;;;6.30;89.90;;;;;;6269050;22;20567;-60
2022/01/25 00:58:55;;;;;;;72.38;32.72;;;6.30;89.90;;;;;;6243415;22;20351;-61
2022/01/25 01:01:21;;;;;;;62.08;31.27;;;6.30;90.00;;;;;;6193929;22;20029;-60
2022/01/25 01:03:46;;;;;;;64.68;31.35;;;6.30;90.00;;;;;;6244617;22;20007;-61
2022/01/25 01:06:12;;;;;;;66.53;31.92;;;6.30;89.90;;;;;;6271082;22;20113;-61
2022/01/25 01:08:37;;;;;;;60.83;30.85;;;6.30;89.80;;;;;;6242137;22;20015;-62
2022/01/25 01:11:07;;;;;;;55.83;30.67;;;6.30;89.70;;;;;;6241938;22;20448;-61
2022/01/25 01:37:52;;;;;;;61.28;30.27;;;6.20;89.60;;;;;;6243435;22;20003;-61
2022/01/25 01:40:49;;;;;;;63.50;32.30;;;6.20;89.60;;;;;;6248730;22;20007;-61
2022/01/25 01:45:59;;;;;;;70.07;34.22;;;6.20;89.70;;;;;;6271500;22;20014;-63
2022/01/25 01:49:00;;;;;;;69.10;32.05;;;6.20;89.60;;;;;;6221634;22;20000;-63
2022/01/25 01:51:25;;;;;;;65.30;32.33;;;6.10;89.50;;;;;;6242648;22;20082;-61
2022/01/25 01:53:50;;;;;;;69.72;32.80;;;6.10;89.40;;;;;;6245955;22;19996;-62
2022/01/25 01:56:16;;;;;;;57.90;31.45;;;6.10;89.50;;;;;;6250734;22;20016;-62
2022/01/25 01:58:41;;;;;;;76.60;34.85;;;6.10;89.60;;;;;;6269211;22;20007;-60
2022/01/25 02:01:08;;;;;;;75.18;33.40;;;6.10;89.50;;;;;;6269173;22;20117;-60
2022/01/25 02:03:34;;;;;;;109.03;34.17;;;6.10;89.50;;;;;;6267089;22;20498;-63
2022/01/25 02:06:00;;;;;;;90.45;34.22;;;6.10;89.50;;;;;;6243461;22;20094;-62
2022/01/25 02:08:25;;;;;;;78.30;33.88;;;6.00;89.50;;;;;;6269082;22;20008;-62
2022/01/25 02:10:51;;;;;;;84.55;31.77;;;6.10;89.70;;;;;;6271142;22;20006;-62
2022/01/25 02:13:16;;;;;;;76.93;32.75;;;6.10;89.50;;;;;;6267973;22;20136;-61
2022/01/25 02:15:45;;;;;;;89.82;33.33;;;6.10;89.50;;;;;;6269396;22;20385;-61
2022/01/25 02:23:41;;;;;;;75.23;32.23;;;6.10;89.60;;;;;;6269463;22;20062;-61
2022/01/25 02:26:07;;;;;;;72.25;30.80;;;6.10;89.60;;;;;;6267284;22;20014;-61
2022/01/25 02:28:35;;;;;;;72.63;32.60;;;6.10;89.60;;;;;;6240425;22;20030;-61
2022/01/25 02:31:00;;;;;;;76.43;30.98;;;6.00;89.60;;;;;;6242939;22;20448;-62
2022/01/25 02:33:26;;;;;;;78.07;32.22;;;6.10;89.60;;;;;;6269355;22;20182;-61
2022/01/25 02:35:52;;;;;;;73.15;32.25;;;6.10;90.10;;;;;;6269754;22;20004;-60
2022/01/25 02:38:26;;;;;;;75.75;31.58;;;6.10;89.50;;;;;;6268279;22;20018;-60
2022/01/25 02:40:51;;;;;;;69.93;32.30;;;6.00;89.50;;;;;;6268867;22;20023;-61
2022/01/25 02:43:18;;;;;;;76.65;31.95;;;6.10;89.50;;;;;;6269413;22;20420;-60
2022/01/25 02:45:48;;;;;;;64.82;30.63;;;6.00;89.50;;;;;;6269756;22;20000;-61
2022/01/25 02:48:30;;;;;;;74.25;30.10;;;6.00;89.50;;;;;;6268711;22;20023;-61
2022/01/25 02:50:56;;;;;;;84.07;32.10;;;6.10;89.50;;;;;;6268495;22;19991;-62
2022/01/25 02:53:22;;;;;;;57.35;32.70;;;6.00;89.50;;;;;;6266438;22;20000;-60
2022/01/25 02:55:48;;;;;;;80.30;36.78;;;6.00;89.50;;;;;;6266290;22;20342;-62
2022/01/25 02:58:13;;;;;;;72.05;36.75;;;6.00;89.40;;;;;;6270690;22;20012;-60
2022/01/25 03:00:39;;;;;;;77.95;37.85;;;6.10;89.40;;;;;;6268958;22;20475;-60
2022/01/25 03:03:04;;;;;;;79.70;35.17;;;6.00;89.40;;;;;;6242168;22;20004;-60
2022/01/25 03:05:30;;;;;;;72.95;35.70;;;6.00;89.40;;;;;;6268577;22;20076;-62
2022/01/25 03:07:57;;;;;;;77.47;36.35;;;6.00;89.50;;;;;;6241521;22;20019;-61
2022/01/25 03:10:22;;;;;;;65.10;34.10;;;6.10;89.60;;;;;;6269758;22;20023;-62
2022/01/25 03:12:53;;;;;;;61.20;32.60;;;6.00;89.50;;;;;;6270799;22;20428;-61
2022/01/25 03:17:50;;;;;;;64.78;32.97;;;6.00;89.50;;;;;;6268813;22;19996;-60
2022/01/25 03:20:22;;;;;;;64.28;35.83;;;6.00;89.60;;;;;;6266995;22;20031;-63
2022/01/25 03:25:21;;;;;;;77.78;34.08;;;6.00;89.60;;;;;;6243392;22;20004;-62
2022/01/25 03:27:46;;;;;;;74.93;35.78;;;6.00;89.80;;;;;;6270270;22;20433;-63
2022/01/25 03:30:12;;;;;;;77.35;35.72;;;5.90;89.70;;;;;;6268900;22;20007;-61
2022/01/25 03:32:37;;;;;;;70.10;34.33;;;5.90;90.00;;;;;;6268446;22;20086;-61
2022/01/25 03:35:03;;;;;;;68.20;34.95;;;5.90;90.00;;;;;;6266530;22;20011;-62
2022/01/25 03:37:28;;;;;;;68.65;34.35;;;5.90;90.00;;;;;;6269969;22;20008;-62
2022/01/25 03:39:54;;;;;;;78.07;34.88;;;5.90;90.00;;;;;;6242517;22;20041;-62
2022/01/25 03:42:20;;;;;;;71.65;35.78;;;5.90;90.00;;;;;;6269411;22;20003;-61
2022/01/25 03:44:45;;;;;;;67.78;33.40;;;5.90;90.00;;;;;;6268106;22;20004;-61
2022/01/25 03:47:15;;;;;;;78.60;34.08;;;5.90;90.00;;;;;;6266207;22;20376;-63
2022/01/25 03:49:49;;;;;;;54.58;32.67;;;5.90;90.00;;;;;;6269561;22;20003;-61
2022/01/25 03:52:16;;;;;;;61.67;33.13;;;5.90;90.00;;;;;;6271211;22;20310;-62
2022/01/25 03:54:42;;;;;;;60.55;34.03;;;5.90;90.00;;;;;;6270375;22;19996;-62
2022/01/25 03:57:07;;;;;;;60.03;34.63;;;5.80;90.00;;;;;;6267914;22;20016;-60
2022/01/25 03:59:33;;;;;;;67.97;36.03;;;5.90;90.00;;;;;;6268521;22;20255;-60
2022/01/25 04:01:58;;;;;;;70.45;34.83;;;5.80;89.90;;;;;;6271638;22;20010;-61
2022/01/25 04:04:26;;;;;;;77.82;34.60;;;5.80;89.90;;;;;;6272156;22;20423;-60
2022/01/25 04:06:53;;;;;;;65.65;35.47;;;5.80;89.90;;;;;;6270706;22;20082;-60
2022/01/25 04:09:18;;;;;;;58.28;35.30;;;5.90;90.00;;;;;;6271951;22;20007;-61
2022/01/25 04:11:44;;;;;;;59.92;34.80;;;5.80;90.00;;;;;;6268542;22;20004;-62
2022/01/25 04:14:10;;;;;;;53.72;33.35;;;5.80;89.90;;;;;;6268385;22;20011;-61
2022/01/25 04:16:55;;;;;;;58.72;33.78;;;5.80;90.00;;;;;;6244705;22;19999;-62
2022/01/25 04:19:31;;;;;;;68.82;34.85;;;5.80;89.90;;;;;;6272220;22;20061;-60
2022/01/25 04:25:02;;;;;;;58.78;33.65;;;5.80;89.90;;;;;;6270446;22;20008;-61
2022/01/25 04:27:28;;;;;;;60.35;32.78;;;5.80;89.90;;;;;;6269215;22;20011;-59
2022/01/25 04:29:54;;;;;;;54.13;31.52;;;5.80;90.00;;;;;;6245586;22;20008;-62
2022/01/25 04:32:20;;;;;;;59.38;34.28;;;5.80;90.00;;;;;;6272231;22;20014;-60
2022/01/25 04:35:07;;;;;;;51.72;32.10;;;5.70;90.00;;;;;;6269976;22;20004;-61
2022/01/25 04:51:27;;;;;;;56.75;29.80;;;5.70;90.00;;;;;;6269710;22;20006;-62
2022/01/25 04:54:03;;;;;;;52.58;31.25;;;5.80;90.00;;;;;;6269028;22;20000;-60
2022/01/25 04:56:39;;;;;;;47.63;30.27;;;5.70;90.00;;;;;;6271381;22;20042;-60
2022/01/25 04:59:59;;;;;;;48.03;31.05;;;5.70;90.00;;;;;;6246961;22;20015;-62
2022/01/25 05:01:55;;;;;;;63.45;30.60;;;5.70;90.00;;;;;;6254974;22;20027;-60
2022/01/25 05:04:27;;;;;;;47.70;29.65;;;5.70;90.00;;;;;;6242753;22;20011;-61
2022/01/25 05:06:56;;;;;;;52.30;31.98;;;5.70;90.00;;;;;;6244785;22;20087;-63
2022/01/25 05:09:22;;;;;;;50.42;30.42;;;5.70;90.00;;;;;;6272077;22;20027;-61
2022/01/25 05:11:49;;;;;;;50.15;30.85;;;5.70;90.00;;;;;;6244749;22;20416;-62
2022/01/25 05:14:31;;;;;;;50.83;31.60;;;5.70;90.00;;;;;;6243907;22;20326;-61
2022/01/25 05:17:00;;;;;;;46.70;30.65;;;5.70;90.00;;;;;;6244809;22;20011;-60
2022/01/25 05:22:26;;;;;;;71.38;32.85;;;5.70;90.00;;;;;;6187086;22;20011;-61
2022/01/25 05:24:52;;;;;;;62.17;31.77;;;5.70;90.00;;;;;;6247649;22;20137;-62
2022/01/25 05:27:19;;;;;;;75.30;33.70;;;5.70;90.00;;;;;;6217609;22;20000;-60
2022/01/25 05:29:44;;;;;;;78.18;33.63;;;5.70;90.10;;;;;;6269754;22;20000;-62
2022/01/25 05:32:10;;;;;;;60.28;32.90;;;5.70;90.10;;;;;;6241406;22;20018;-61
2022/01/25 05:34:35;;;;;;;60.53;33.25;;;5.70;90.10;;;;;;6243270;22;20417;-62
2022/01/25 05:37:03;;;;;;;73.00;34.13;;;5.70;90.10;;;;;;6271200;22;20075;-61
2022/01/25 05:39:33;;;;;;;63.50;32.10;;;5.70;90.10;;;;;;6271547;22;20008;-60
2022/01/25 05:42:15;;;;;;;52.30;32.08;;;5.70;90.10;;;;;;6269605;22;20000;-61
2022/01/25 05:45:17;;;;;;;50.53;30.45;;;5.70;90.10;;;;;;6269237;22;20417;-62
2022/01/25 05:47:30;;;;;;;;;;;5.70;90.10;;;;;;6269027;22;20578;-61
2022/01/25 05:49:56;;;;;;;66.50;31.27;;;5.70;90.10;;;;;;6243816;22;20690;-62
2022/01/25 05:52:22;;;;;;;50.95;31.77;;;5.70;90.20;;;;;;6271064;22;20090;-60
2022/01/25 05:54:48;;;;;;;57.38;31.98;;;5.70;90.20;;;;;;6269973;22;20022;-61
2022/01/25 05:57:14;;;;;;;64.40;31.45;;;5.70;90.30;;;;;;6268035;22;20645;-61
2022/01/25 05:59:39;;;;;;;49.95;30.15;;;5.70;90.40;;;;;;6217730;22;20067;-62
2022/01/25 06:02:05;;;;;;;57.67;31.88;;;5.70;90.50;;;;;;6270946;22;20061;-61
2022/01/25 06:04:30;;;;;;;58.42;30.95;;;5.70;90.50;;;;;;6244002;22;20091;-61
2022/01/25 06:06:56;;;;;;;60.20;30.75;;;5.70;90.50;;;;;;6217406;22;20473;-60
2022/01/25 06:09:24;;;;;;;49.50;31.10;;;5.70;90.50;;;;;;6241407;22;20000;-60
2022/01/25 06:11:51;;;;;;;53.30;31.15;;;5.70;90.40;;;;;;6268662;22;19999;-62
2022/01/25 06:14:16;;;;;;;60.47;31.65;;;5.70;90.40;;;;;;6217151;22;20084;-62
2022/01/25 06:16:41;;;;;;;49.20;30.10;;;5.70;90.40;;;;;;6270170;22;19999;-62
2022/01/25 06:19:07;;;;;;;48.78;30.20;;;5.60;90.30;;;;;;6271210;22;20121;-62
2022/01/25 06:21:33;;;;;;;52.85;31.52;;;5.70;90.40;;;;;;6268798;22;20448;-62
2022/01/25 06:23:58;;;;;;;52.67;31.27;;;5.60;90.30;;;;;;6241333;22;20038;-61
2022/01/25 06:26:24;;;;;;;55.03;30.90;;;5.60;90.40;;;;;;6268721;22;20004;-61
2022/01/25 06:28:49;;;;;;;55.72;31.17;;;5.60;90.40;;;;;;6270247;22;20432;-60
2022/01/25 06:31:17;;;;;;;55.13;30.85;;;5.60;90.40;;;;;;6243212;22;20000;-60
2022/01/25 06:33:43;;;;;;;50.15;30.75;;;5.60;90.40;;;;;;6218708;22;20401;-62
2022/01/25 06:36:09;;;;;;;55.60;31.73;;;5.60;90.40;;;;;;6241841;22;20531;-60
2022/01/25 06:38:35;;;;;;;51.67;31.88;;;5.60;90.40;;;;;;6269618;22;20004;-61
2022/01/25 06:41:01;;;;;;;52.80;29.83;;;5.60;90.40;;;;;;6217985;22;20155;-62
2022/01/25 06:43:26;;;;;;;48.10;30.30;;;5.60;90.40;;;;;;6269569;22;20010;-61
2022/01/25 06:45:59;;;;;;;49.92;30.75;;;5.60;90.40;;;;;;6270525;22;20003;-61
2022/01/25 06:48:24;;;;;;;51.60;30.30;;;5.60;90.40;;;;;;6242909;22;20070;-60
2022/01/25 06:50:50;;;;;;;49.30;30.15;;;5.60;90.40;;;;;;6241583;22;20038;-61
2022/01/25 06:53:16;;;;;;;46.88;29.33;;;5.60;90.40;;;;;;6269519;22;20011;-62
2022/01/25 06:55:41;;;;;;;58.53;31.10;;;5.60;90.40;;;;;;6268344;22;20008;-61
2022/01/25 06:58:07;;;;;;;51.45;32.13;;;5.60;90.30;;;;;;6242056;22;20098;-60
2022/01/25 07:00:32;;;;;;;51.42;30.40;;;5.60;90.40;;;;;;6241270;22;20037;-62
2022/01/25 07:02:58;;;;;;;47.28;30.70;;;5.50;90.40;;;;;;6268100;22;20057;-61
2022/01/25 07:05:23;;;;;;;49.28;31.00;;;5.50;90.40;;;;;;6241968;22;20003;-60
2022/01/25 07:07:50;;;;;;;52.00;31.60;;;5.50;90.40;;;;;;6243012;22;20004;-60
2022/01/25 07:10:15;;;;;;;53.25;30.30;;;5.50;90.30;;;;;;6243877;22;20050;-61
2022/01/25 07:12:41;;;;;;;46.25;30.60;;;5.50;90.30;;;;;;6269941;22;20000;-61
2022/01/25 07:15:07;;;;;;;51.00;30.88;;;5.50;90.30;;;;;;6240863;22;20493;-61
2022/01/25 07:17:32;;;;;;;54.25;31.25;;;5.50;90.30;;;;;;6216223;22;20011;-61
2022/01/25 07:19:58;;;;;;;51.45;30.58;;;5.50;90.30;;;;;;6191947;22;20129;-60
2022/01/25 07:22:24;;;;;;;50.45;30.80;;;5.50;90.30;;;;;;6241809;22;20027;-61
2022/01/25 07:24:49;;;;;;;49.13;29.88;;;5.50;90.30;;;;;;6243255;22;20004;-62
2022/01/25 07:27:15;;;;;;;47.90;32.08;;;5.50;90.20;;;;;;6266500;22;20004;-62
2022/01/25 07:29:40;;;;;;;43.00;31.05;;;5.50;90.20;;;;;;6267825;22;20038;-62
2022/01/25 07:32:06;;;;;;;46.72;29.80;;;5.50;90.20;;;;;;6269631;22;20252;-61
2022/01/25 07:34:31;;;;;;;44.95;29.23;;;5.50;90.20;;;;;;6243321;22;20007;-61
2022/01/25 07:36:57;;;;;;;44.17;30.23;;;5.50;90.20;;;;;;6243924;22;20004;-62
2022/01/25 07:39:23;;;;;;;49.22;29.90;;;5.50;90.20;;;;;;6270924;22;20011;-60
2022/01/25 07:41:48;;;;;;;40.63;29.05;;;5.50;90.20;;;;;;6243391;22;20333;-62
2022/01/25 07:44:15;;;;;;;43.42;29.10;;;5.50;90.20;;;;;;6219306;22;20010;-60
2022/01/25 07:46:41;;;;;;;41.90;28.52;;;5.50;90.10;;;;;;6219727;22;20106;-63
2022/01/25 07:49:06;;;;;;;43.65;28.92;;;5.50;90.10;;;;;;6272463;22;20000;-62
2022/01/25 07:51:32;;;;;;;49.90;30.67;;;5.50;90.10;;;;;;6244563;22;20007;-62
2022/01/25 07:53:59;;;;;;;43.15;30.08;;;5.50;90.10;;;;;;6216619;22;20000;-60
2022/01/25 07:56:25;;;;;;;45.65;29.73;;;5.50;90.10;;;;;;6268778;22;20023;-61
2022/01/25 07:58:50;;;;;;;47.28;29.35;;;5.40;90.10;;;;;;6272414;22;20026;-62
2022/01/25 08:01:16;;;;;;;55.97;31.75;;;5.50;90.10;;;;;;6272637;22;20057;-60
2022/01/25 08:03:42;;;;;;;46.80;29.05;;;5.40;90.10;;;;;;6271720;22;20584;-62
2022/01/25 08:06:07;;;;;;;46.88;30.58;;;5.50;90.10;;;;;;6242674;22;20014;-60
2022/01/25 08:08:33;;;;;;;46.15;28.48;;;5.40;90.10;;;;;;6241990;22;20090;-62
2022/01/25 08:10:59;;;;;;;46.45;29.52;;;5.50;90.10;;;;;;6217992;22;19995;-60
2022/01/25 08:13:24;;;;;;;47.58;29.70;;;5.40;90.10;;;;;;6245881;22;20381;-60
2022/01/25 08:15:50;;;;;;;60.15;31.02;;;5.50;90.10;;;;;;6266298;22;20511;-61
2022/01/25 08:18:15;;;;;;;69.22;30.00;;;5.50;90.10;;;;;;6217289;22;20083;-61
2022/01/25 08:20:41;;;;;;;49.83;29.77;;;5.50;90.10;;;;;;6242414;22;20042;-62
2022/01/25 08:23:06;;;;;;;66.63;32.05;;;5.40;90.00;;;;;;6267986;22;20432;-62
2022/01/25 08:25:32;;;;;;;56.83;30.40;;;5.40;90.10;;;;;;6242588;22;20076;-61
2022/01/25 08:27:57;;;;;;;58.28;31.73;;;5.40;90.00;;;;;;6243448;22;20069;-59
2022/01/25 08:30:23;;;;;;;50.15;29.40;;;5.50;90.00;;;;;;6241998;22;19995;-61
2022/01/25 08:32:49;;;;;;;57.50;30.30;;;5.50;90.00;;;;;;6265897;22;20409;-61
2022/01/25 08:35:15;;;;;;;53.13;30.77;;;5.40;90.00;;;;;;6238786;22;20022;-62
2022/01/25 08:37:40;;;;;;;55.17;30.40;;;5.50;90.00;;;;;;6268155;22;20003;-62
2022/01/25 08:40:07;;;;;;;50.92;31.33;;;5.50;90.00;;;;;;6243228;22;20007;-60
2022/01/25 08:42:33;;;;;;;52.67;29.60;;;5.50;90.00;;;;;;6219037;22;20014;-60
2022/01/25 08:44:59;;;;;;;50.38;30.83;;;5.50;90.00;;;;;;6242936;22;20004;-61
2022/01/25 08:47:24;;;;;;;47.92;31.20;;;5.40;89.90;;;;;;6267182;22;20318;-62
2022/01/25 08:49:50;;;;;;;53.30;30.95;;;5.50;90.00;;;;;;6269568;22;20294;-62
2022/01/25 08:52:16;;;;;;;60.80;30.63;;;5.50;89.90;;;;;;6240759;22;20014;-61
2022/01/25 08:54:41;;;;;;;57.28;29.67;;;5.50;89.90;;;;;;6268821;22;20154;-61
2022/01/25 08:57:07;;;;;;;59.35;30.90;;;5.50;89.80;;;;;;6260647;22;20016;-60
2022/01/25 08:59:32;;;;;;;50.30;30.92;;;5.50;89.80;;;;;;6267580;22;20000;-61
2022/01/25 09:01:59;;;;;;;51.00;30.38;;;5.50;89.80;;;;;;6215962;22;20010;-62
2022/01/25 09:04:25;;;;;;;56.90;30.40;;;5.50;89.70;;;;;;6242375;22;20427;-60
2022/01/25 09:06:50;;;;;;;56.38;32.75;;;5.60;89.80;;;;;;6244429;22;20008;-61
2022/01/25 09:09:16;;;;;;;56.05;31.27;;;5.60;89.80;;;;;;6269650;22;20008;-61
2022/01/25 09:11:41;;;;;;;52.72;30.27;;;5.60;89.90;;;;;;6267251;22;19995;-60
2022/01/25 09:14:08;;;;;;;57.70;31.80;;;5.60;89.80;;;;;;6243061;22;20095;-61
2022/01/25 09:16:33;;;;;;;56.80;31.48;;;5.60;89.80;;;;;;6243007;22;20007;-61
2022/01/25 09:18:59;;;;;;;55.88;31.63;;;5.60;89.70;;;;;;6268006;22;19996;-62
2022/01/25 09:21:25;;;;;;;77.90;33.38;;;5.60;89.80;;;;;;6271316;22;20004;-60
2022/01/25 09:23:50;;;;;;;57.25;32.30;;;5.60;89.90;;;;;;6267191;22;20000;-62
2022/01/25 09:26:16;;;;;;;63.40;33.40;;;5.60;90.00;;;;;;6268756;22;20011;-61
2022/01/25 09:28:42;;;;;;;54.97;30.60;;;5.70;90.10;;;;;;6270482;22;20012;-63
2022/01/25 09:31:07;;;;;;;60.70;32.00;;;5.70;90.00;;;;;;6268514;22;20392;-61
2022/01/25 09:33:33;;;;;;;62.53;32.00;;;5.70;89.90;;;;;;6217644;22;20314;-60
2022/01/25 09:35:58;;;;;;;63.63;34.08;;;5.70;89.80;;;;;;6270059;22;20076;-61
2022/01/25 09:38:24;;;;;;;63.40;32.03;;;5.70;89.90;;;;;;6268668;22;20026;-63
2022/01/25 09:40:50;;;;;;;60.58;31.40;;;5.70;90.00;;;;;;6240892;22;20026;-61
2022/01/25 09:43:16;;;;;;;63.22;31.55;;;5.70;89.80;;;;;;6241345;22;20455;-61
2022/01/25 09:45:41;;;;;;;54.78;32.78;;;5.70;89.70;;;;;;6269708;22;20032;-62
2022/01/25 09:48:07;;;;;;;58.80;32.42;;;5.80;89.80;;;;;;6269300;22;20432;-60
2022/01/25 09:50:33;;;;;;;64.88;31.10;;;5.80;89.70;;;;;;6241027;22;20004;-61
2022/01/25 09:53:02;;;;;;;67.38;31.58;;;5.80;89.70;;;;;;6266906;22;20065;-62
2022/01/25 09:55:31;;;;;;;67.60;31.63;;;5.80;89.70;;;;;;6266705;22;20018;-61
2022/01/25 09:57:56;;;;;;;62.70;32.03;;;5.80;89.50;;;;;;6267630;22;20007;-60
2022/01/25 10:00:24;;;;;;;71.85;34.28;;;5.80;89.50;;;;;;6268584;22;20011;-61
2022/01/25 10:03:01;;;;;;;61.58;32.30;;;5.80;89.60;;;;;;6270136;22;20026;-60
2022/01/25 10:05:34;;;;;;;64.80;33.42;;;5.80;89.40;;;;;;6242437;22;20220;-61
2022/01/25 10:08:19;;;;;;;66.97;32.75;;;5.80;89.50;;;;;;6241050;22;20109;-61
2022/01/25 10:10:49;;;;;;;56.85;33.00;;;5.80;89.60;;;;;;6241747;22;20047;-62
2022/01/25 10:13:19;;;;;;;70.20;33.50;;;5.80;89.50;;;;;;6243872;22;20085;-62
2022/01/25 10:15:45;;;;;;;52.55;32.88;;;5.80;89.60;;;;;;6242384;22;20480;-62
2022/01/25 10:18:10;;;;;;;65.47;34.25;;;5.80;89.50;;;;;;6239844;22;20015;-60
2022/01/25 10:20:41;;;;;;;68.45;32.42;;;5.80;89.80;;;;;;6267078;22;20429;-62
2022/01/25 10:23:18;;;;;;;65.40;32.28;;;5.80;89.70;;;;;;6215441;22;20008;-61
2022/01/25 10:25:46;;;;;;;78.78;32.65;;;5.80;89.60;;;;;;6220393;22;20007;-62
2022/01/25 10:28:12;;;;;;;60.17;33.13;;;5.80;89.60;;;;;;6217434;22;20014;-61
2022/01/25 10:30:44;;;;;;;58.05;32.28;;;5.80;89.60;;;;;;6241212;22;20128;-62
2022/01/25 10:33:40;;;;;;;63.90;33.72;;;5.80;89.60;;;;;;6240228;22;20014;-61
2022/01/25 10:36:23;;;;;;;69.68;33.05;;;5.80;89.60;;;;;;6265584;22;20405;-61
2022/01/25 10:38:53;;;;;;;75.90;33.58;;;5.80;89.60;;;;;;6269981;22;20805;-60
2022/01/25 10:41:20;;;;;;;86.45;34.80;;;5.80;89.60;;;;;;6240819;22;20011;-62
2022/01/25 10:43:47;;;;;;;75.68;35.20;;;5.80;89.70;;;;;;6266970;22;20377;-61
2022/01/25 10:46:15;;;;;;;83.22;35.20;;;5.80;89.70;;;;;;6214658;22;20007;-61
2022/01/25 10:48:43;;;;;;;71.43;34.67;;;5.80;89.80;;;;;;6267287;22;20413;-60
2022/01/25 10:51:17;;;;;;;65.60;33.13;;;5.80;89.80;;;;;;6213958;22;20499;-62
2022/01/25 10:53:43;;;;;;;77.78;32.90;;;5.80;89.80;;;;;;6242090;22;20396;-60
2022/01/25 10:56:08;;;;;;;61.38;32.17;;;5.80;90.20;;;;;;6196097;22;20524;-60
2022/01/25 10:58:42;;;;;;;78.32;33.40;;;5.80;89.90;;;;;;6265491;22;20011;-60
2022/01/25 11:01:10;;;;;;;85.65;33.03;;;5.80;89.90;;;;;;6264733;22;20342;-62
2022/01/25 11:03:42;;;;;;;67.20;32.50;;;5.80;89.90;;;;;;6267603;22;20000;-62
2022/01/25 11:06:19;;;;;;;61.28;32.45;;;5.80;89.90;;;;;;6264349;22;20065;-62
2022/01/25 11:08:46;;;;;;;88.43;34.20;;;5.80;89.90;;;;;;6238105;22;20189;-60
2022/01/25 11:11:22;;;;;;;69.40;32.10;;;5.80;90.00;;;;;;6241002;22;20279;-61
2022/01/25 11:13:49;;;;;;;365.35;62.38;;;5.80;90.00;;;;;;6264996;22;19992;-60
2022/01/25 11:16:14;;;;;;;140.10;39.85;;;5.80;90.10;;;;;;6267537;22;20011;-60
2022/01/25 11:18:40;;;;;;;94.88;35.00;;;5.80;90.20;;;;;;6267844;22;20182;-61
2022/01/25 11:21:07;;;;;;;91.32;33.28;;;5.80;90.20;;;;;;6264743;22;20014;-62
2022/01/25 11:23:34;;;;;;;92.22;35.67;;;5.80;90.10;;;;;;6264218;22;20391;-61
2022/01/25 11:26:02;;;;;;;93.03;36.97;;;5.80;90.00;;;;;;6261944;22;20012;-61
2022/01/25 11:28:31;;;;;;;100.57;34.97;;;5.80;90.00;;;;;;6268580;22;20004;-60
2022/01/25 11:30:59;;;;;;;107.88;36.17;;;5.80;90.10;;;;;;6263558;22;20375;-60
2022/01/25 11:33:25;;;;;;;95.55;35.75;;;5.90;90.20;;;;;;6266488;22;20050;-62
2022/01/25 11:35:50;;;;;;;113.72;36.90;;;5.90;90.20;;;;;;6238183;22;20000;-61
2022/01/25 11:38:16;;;;;;;78.28;34.60;;;5.90;90.20;;;;;;6233476;22;20027;-60
2022/01/25 11:40:45;;;;;;;93.22;35.38;;;5.90;90.10;;;;;;6238560;22;20004;-60
2022/01/25 11:43:13;;;;;;;90.43;35.42;;;5.90;90.00;;;;;;6268597;22;20008;-59
2022/01/25 11:45:41;;;;;;;100.63;36.35;;;5.90;90.00;;;;;;6268247;22;20086;-62
2022/01/25 11:48:06;;;;;;;98.10;34.80;;;5.90;90.00;;;;;;6239396;22;20481;-61
2022/01/25 11:50:33;;;;;;;165.40;41.40;;;6.00;90.00;;;;;;6262608;22;20081;-61
2022/01/25 11:53:05;;;;;;;91.90;35.03;;;6.00;90.10;;;;;;6257152;22;20293;-60
2022/01/25 11:55:39;;;;;;;102.25;36.45;;;6.00;90.10;;;;;;6236489;22;20111;-64
2022/01/25 11:58:15;;;;;;;75.82;33.75;;;6.00;90.10;;;;;;6239174;22;20031;-61
2022/01/25 12:00:42;;;;;;;85.95;33.78;;;6.00;90.00;;;;;;6210755;22;20099;-59
2022/01/25 12:03:44;;;;;;;104.03;35.85;;;6.00;90.00;;;;;;6263945;22;20095;-61
2022/01/25 12:06:30;;;;;;;105.45;35.22;;;6.00;90.10;;;;;;6240437;22;20086;-62
2022/01/25 12:11:59;;;;;;;100.13;34.60;;;6.00;90.00;;;;;;6219722;22;20098;-62
2022/01/25 12:14:40;;;;;;;107.85;34.78;;;6.00;90.10;;;;;;6235971;22;20071;-62
2022/01/25 12:17:06;;;;;;;76.40;33.85;;;6.00;90.10;;;;;;6264705;22;20012;-61
2022/01/25 12:20:06;;;;;;;88.15;33.65;;;6.00;90.10;;;;;;6264111;22;20004;-59
2022/01/25 12:22:37;;;;;;;76.28;32.28;;;6.00;90.10;;;;;;6222397;22;20091;-61
2022/01/25 12:25:27;;;;;;;103.57;34.65;;;6.00;90.00;;;;;;6240777;22;19999;-60
2022/01/25 12:28:01;;;;;;;102.03;35.53;;;6.00;90.00;;;;;;6262035;22;20019;-61
2022/01/25 12:30:30;;;;;;;84.45;32.00;;;6.00;90.10;;;;;;6237880;22;20113;-62
2022/01/25 12:33:02;;;;;;;94.20;35.47;;;6.00;90.00;;;;;;6267421;22;20098;-61
2022/01/25 12:35:34;;;;;;;80.60;31.83;;;6.00;89.90;;;;;;6267003;22;20061;-61
2022/01/25 12:38:01;;;;;;;80.10;32.28;;;6.00;89.80;;;;;;6238480;22;20022;-62
2022/01/25 12:40:26;;;;;;;69.60;32.45;;;6.00;89.80;;;;;;6237265;22;20008;-61
2022/01/25 12:42:59;;;;;;;76.07;31.77;;;6.00;89.70;;;;;;6264738;22;20169;-60
2022/01/25 12:45:26;;;;;;;70.65;31.15;;;6.00;89.80;;;;;;6231688;22;20538;-63
2022/01/25 12:48:09;;;;;;;92.28;34.47;;;6.00;89.70;;;;;;6233029;22;20007;-62
2022/01/25 12:50:36;;;;;;;91.32;33.45;;;6.00;89.60;;;;;;6210170;22;20324;-62
2022/01/25 12:53:02;;;;;;;73.85;30.70;;;6.00;89.70;;;;;;6187429;22;20082;-60
2022/01/25 12:55:30;;;;;;;95.15;34.45;;;6.00;89.60;;;;;;6212664;22;20096;-60
2022/01/25 12:57:56;;;;;;;79.50;32.15;;;6.00;89.50;;;;;;6240887;22;20029;-62
2022/01/25 13:00:27;;;;;;;75.75;31.67;;;5.90;89.30;;;;;;6241073;22;20071;-60
2022/01/25 13:02:52;;;;;;;77.00;31.50;;;6.00;89.30;;;;;;6219024;22;20057;-60
2022/01/25 13:05:20;;;;;;;69.47;30.33;;;6.00;89.30;;;;;;6242515;22;20062;-60
2022/01/25 13:07:46;;;;;;;66.53;31.65;;;6.00;89.10;;;;;;6214872;22;20019;-61
2022/01/25 13:10:22;;;;;;;63.75;30.55;;;6.30;89.40;;;;;;6240634;22;20467;-60
2022/01/25 13:12:57;;;;;;;80.65;30.40;;;6.00;89.20;;;;;;6241119;22;20409;-60
2022/01/25 13:16:07;;;;;;;70.07;29.85;;;6.00;89.30;;;;;;6266820;22;20381;-61
2022/01/25 13:18:14;;;;;;;71.85;30.55;;;6.10;89.40;;;;;;6230617;22;20027;-60
2022/01/25 13:20:41;;;;;;;72.00;30.75;;;6.10;89.40;;;;;;6215047;22;20018;-61
2022/01/25 13:23:07;;;;;;;64.85;28.58;;;6.00;89.60;;;;;;6216268;22;20098;-61
2022/01/25 13:25:53;;;;;;;74.82;30.35;;;6.10;89.80;;;;;;6266284;22;20108;-62
2022/01/25 13:31:18;;;;;;;54.58;28.75;;;6.00;89.80;;;;;;6218139;22;20089;-61
2022/01/25 13:33:44;;;;;;;63.58;27.33;;;6.00;89.50;;;;;;6236653;22;20011;-62
2022/01/25 13:36:12;;;;;;;61.53;29.60;;;6.10;89.50;;;;;;6236467;22;20101;-62
2022/01/25 13:38:38;;;;;;;82.75;30.35;;;6.10;89.40;;;;;;6191933;22;20010;-62
2022/01/25 13:46:10;;;;;;;71.38;30.40;;;6.10;89.50;;;;;;6263855;22;20177;-61
2022/01/25 13:48:36;;;;;;;65.97;29.38;;;6.10;89.60;;;;;;6239629;22;20049;-60
2022/01/25 13:51:04;;;;;;;80.13;30.00;;;6.10;89.50;;;;;;6187608;22;20000;-60
2022/01/25 13:53:29;;;;;;;62.67;29.45;;;6.10;89.50;;;;;;6238665;22;20030;-60
2022/01/25 13:55:57;;;;;;;69.57;30.23;;;6.10;89.60;;;;;;6241642;22;20448;-62
2022/01/25 13:58:31;;;;;;;72.75;30.92;;;6.10;89.50;;;;;;6240943;22;20053;-61
2022/01/25 14:00:58;;;;;;;71.03;28.85;;;6.10;89.60;;;;;;6238864;22;20131;-60
2022/01/25 14:03:28;;;;;;;74.93;30.90;;;6.10;89.70;;;;;;6238314;22;20006;-60
2022/01/25 14:05:54;;;;;;;61.55;29.30;;;6.10;89.70;;;;;;6239177;22;20064;-62
2022/01/25 14:08:41;;;;;;;90.78;30.48;;;6.20;89.80;;;;;;6267254;22;20408;-60
2022/01/25 14:22:41;;;;;;;122.55;33.22;;;6.20;90.00;;;;;;6247985;22;20053;-60
2022/01/25 14:25:07;;;;;;;87.18;31.48;;;6.20;90.00;;;;;;6266970;22;20000;-62
2022/01/25 14:27:44;;;;;;;72.82;30.55;;;6.20;90.00;;;;;;6238519;22;20094;-61
2022/01/25 14:30:10;;;;;;;90.93;34.00;;;6.20;90.00;;;;;;6264430;22;20449;-60
2022/01/25 14:32:36;;;;;;;85.68;31.77;;;6.30;90.10;;;;;;6266636;22;20139;-60